createdAt,value
2023-01-28T00:02:52.184Z,1014.46
2023-01-28T00:05:52.138Z,1014.47
2023-01-28T00:08:52.138Z,1014.5
2023-01-28T00:11:52.141Z,1014.5
2023-01-28T00:14:52.141Z,1014.49
2023-01-28T00:17:52.158Z,1014.46
2023-01-28T00:20:52.144Z,1014.44
2023-01-28T00:23:52.176Z,1014.42
2023-01-28T00:26:52.139Z,1014.4
2023-01-28T00:29:52.150Z,1014.38
2023-01-28T00:32:52.142Z,1014.34
2023-01-28T00:35:52.142Z,1014.37
2023-01-28T00:38:52.140Z,1014.39
2023-01-28T00:41:52.165Z,1014.44
2023-01-28T00:44:52.141Z,1014.48
2023-01-28T00:47:52.141Z,1014.47
2023-01-28T00:50:52.144Z,1014.52
2023-01-28T00:53:52.147Z,1014.51
2023-01-28T00:56:52.148Z,1014.57
2023-01-28T00:59:52.142Z,1014.56
2023-01-28T01:02:52.167Z,1014.55
2023-01-28T01:05:52.216Z,1014.52
2023-01-28T01:08:52.143Z,1014.56
2023-01-28T01:11:52.146Z,1014.56
2023-01-28T01:14:52.146Z,1014.6
2023-01-28T01:17:52.148Z,1014.65
2023-01-28T01:20:53.041Z,1014.67
2023-01-28T01:23:52.231Z,1014.63
2023-01-28T01:26:52.150Z,1014.7
2023-01-28T01:29:52.146Z,1014.69
2023-01-28T01:32:52.149Z,1014.72
2023-01-28T01:35:52.148Z,1014.76
2023-01-28T01:38:52.145Z,1014.81
2023-01-28T01:41:52.151Z,1014.86
2023-01-28T01:44:52.154Z,1014.85
2023-01-28T01:47:52.171Z,1014.85
2023-01-28T01:50:52.155Z,1014.85
2023-01-28T01:53:52.155Z,1014.9
2023-01-28T01:56:52.152Z,1014.88
2023-01-28T01:59:52.157Z,1014.94
2023-01-28T02:02:52.160Z,1014.92
2023-01-28T02:05:52.151Z,1015.02
2023-01-28T02:08:52.148Z,1014.96
2023-01-28T02:11:52.153Z,1015.07
2023-01-28T02:14:52.158Z,1014.97
2023-01-28T02:17:52.178Z,1014.94
2023-01-28T02:20:52.159Z,1014.95
2023-01-28T02:23:52.172Z,1014.93
2023-01-28T02:26:52.148Z,1014.92
2023-01-28T02:29:52.176Z,1014.91
2023-01-28T02:32:52.165Z,1014.92
2023-01-28T02:35:52.163Z,1014.95
2023-01-28T02:38:52.161Z,1014.94
2023-01-28T02:41:52.185Z,1014.94
2023-01-28T02:44:52.160Z,1014.96
2023-01-28T02:47:52.165Z,1014.98
2023-01-28T02:50:52.164Z,1015.01
2023-01-28T02:53:52.163Z,1015.02
2023-01-28T02:56:52.162Z,1015.01
2023-01-28T02:59:52.169Z,1015.06
2023-01-28T03:02:52.204Z,1015.1
2023-01-28T03:05:52.168Z,1015.09
2023-01-28T03:08:52.165Z,1015.08
2023-01-28T03:11:52.166Z,1015.1
2023-01-28T03:14:52.159Z,1015.13
2023-01-28T03:17:52.168Z,1015.14
2023-01-28T03:20:52.164Z,1015.2
2023-01-28T03:23:52.190Z,1015.23
2023-01-28T03:26:52.160Z,1015.26
2023-01-28T03:29:52.167Z,1015.32
2023-01-28T03:32:52.163Z,1015.29
2023-01-28T03:35:52.173Z,1015.3
2023-01-28T03:38:52.166Z,1015.32
2023-01-28T03:41:52.166Z,1015.3
2023-01-28T03:44:52.165Z,1015.3
2023-01-28T03:50:52.167Z,1015.4
2023-01-28T03:53:52.172Z,1015.4
2023-01-28T03:56:52.168Z,1015.41
2023-01-28T03:59:52.166Z,1015.41
2023-01-28T04:02:52.196Z,1015.42
2023-01-28T04:05:52.160Z,1015.41
2023-01-28T04:08:52.167Z,1015.43
2023-01-28T04:11:52.164Z,1015.43
2023-01-28T04:14:52.161Z,1015.41
2023-01-28T04:17:52.173Z,1015.41
2023-01-28T04:20:52.169Z,1015.45
2023-01-28T04:23:52.207Z,1015.46
2023-01-28T04:26:52.183Z,1015.45
2023-01-28T04:29:52.171Z,1015.44
2023-01-28T04:32:52.185Z,1015.46
2023-01-28T04:35:52.167Z,1015.49
2023-01-28T04:38:52.175Z,1015.48
2023-01-28T04:41:52.169Z,1015.49
2023-01-28T04:44:52.186Z,1015.45
2023-01-28T04:47:52.181Z,1015.45
2023-01-28T04:50:52.170Z,1015.43
2023-01-28T04:53:52.178Z,1015.43
2023-01-28T04:56:52.180Z,1015.42
2023-01-28T04:59:52.203Z,1015.43
2023-01-28T05:02:52.181Z,1015.44
2023-01-28T05:05:52.178Z,1015.43
2023-01-28T05:08:52.187Z,1015.39
2023-01-28T05:11:52.184Z,1015.43
2023-01-28T05:14:52.186Z,1015.47
2023-01-28T05:17:52.169Z,1015.49
2023-01-28T05:20:52.173Z,1015.58
2023-01-28T05:23:52.219Z,1015.61
2023-01-28T05:26:52.187Z,1015.6
2023-01-28T05:29:52.189Z,1015.66
2023-01-28T05:32:52.273Z,1015.71
2023-01-28T05:35:52.177Z,1015.66
2023-01-28T05:38:52.189Z,1015.72
2023-01-28T05:41:52.180Z,1015.73
2023-01-28T05:44:52.182Z,1015.77
2023-01-28T05:47:52.228Z,1015.84
2023-01-28T05:50:52.182Z,1015.87
2023-01-28T05:53:52.182Z,1015.91
2023-01-28T05:56:52.218Z,1015.97
2023-01-28T05:59:52.215Z,1015.97
2023-01-28T06:02:52.201Z,1016
2023-01-28T06:05:52.183Z,1016.06
2023-01-28T06:08:52.189Z,1016.08
2023-01-28T06:11:52.185Z,1016.09
2023-01-28T06:14:52.205Z,1016.11
2023-01-28T06:17:52.186Z,1016.07
2023-01-28T06:20:52.197Z,1016.12
2023-01-28T06:23:52.192Z,1016.15
2023-01-28T06:26:52.196Z,1016.22
2023-01-28T06:29:52.189Z,1016.24
2023-01-28T06:32:52.193Z,1016.23
2023-01-28T06:35:52.191Z,1016.25
2023-01-28T06:38:52.189Z,1016.22
2023-01-28T06:41:52.190Z,1016.28
2023-01-28T06:44:52.192Z,1016.34
2023-01-28T06:47:52.190Z,1016.34
2023-01-28T06:50:52.187Z,1016.36
2023-01-28T06:53:52.196Z,1016.34
2023-01-28T06:56:52.187Z,1016.35
2023-01-28T06:59:52.197Z,1016.38
2023-01-28T07:02:52.192Z,1016.39
2023-01-28T07:05:52.194Z,1016.41
2023-01-28T07:08:52.198Z,1016.42
2023-01-28T07:11:52.184Z,1016.41
2023-01-28T07:14:52.197Z,1016.41
2023-01-28T07:17:52.193Z,1016.49
2023-01-28T07:20:52.196Z,1016.54
2023-01-28T07:23:52.215Z,1016.57
2023-01-28T07:26:52.195Z,1016.58
2023-01-28T07:29:52.201Z,1016.58
2023-01-28T07:32:52.199Z,1016.61
2023-01-28T07:35:52.202Z,1016.62
2023-01-28T07:38:52.200Z,1016.57
2023-01-28T07:41:52.191Z,1016.63
2023-01-28T07:44:52.202Z,1016.63
2023-01-28T07:47:52.197Z,1016.71
2023-01-28T07:50:52.202Z,1016.73
2023-01-28T07:53:52.194Z,1016.79
2023-01-28T07:56:52.205Z,1016.83
2023-01-28T07:59:52.198Z,1016.81
2023-01-28T08:02:52.197Z,1016.81
2023-01-28T08:05:52.201Z,1016.83
2023-01-28T08:08:52.209Z,1016.85
2023-01-28T08:11:52.195Z,1016.78
2023-01-28T08:14:52.195Z,1016.88
2023-01-28T08:17:52.197Z,1016.93
2023-01-28T08:20:52.195Z,1016.97
2023-01-28T08:23:52.231Z,1016.98
2023-01-28T08:26:52.202Z,1016.98
2023-01-28T08:29:52.202Z,1016.97
2023-01-28T08:32:52.199Z,1017
2023-01-28T08:35:52.215Z,1017.05
2023-01-28T08:38:52.216Z,1017.08
2023-01-28T08:41:52.201Z,1017.1
2023-01-28T08:44:52.200Z,1017.09
2023-01-28T08:47:52.202Z,1017.07
2023-01-28T08:50:52.202Z,1017.08
2023-01-28T08:53:52.209Z,1017.08
2023-01-28T08:56:52.213Z,1017.15
2023-01-28T08:59:52.201Z,1017.19
2023-01-28T09:02:52.214Z,1017.23
2023-01-28T09:05:52.210Z,1017.25
2023-01-28T09:08:52.201Z,1017.2
2023-01-28T09:11:52.209Z,1017.25
2023-01-28T09:14:52.211Z,1017.33
2023-01-28T09:17:52.213Z,1017.32
2023-01-28T09:20:52.215Z,1017.4
2023-01-28T09:23:52.327Z,1017.42
2023-01-28T09:26:52.210Z,1017.39
2023-01-28T09:29:52.215Z,1017.4
2023-01-28T09:32:52.210Z,1017.44
2023-01-28T09:35:52.216Z,1017.5
2023-01-28T09:38:52.210Z,1017.46
2023-01-28T09:41:52.214Z,1017.54
2023-01-28T09:44:52.222Z,1017.55
2023-01-28T09:47:52.208Z,1017.51
2023-01-28T09:50:52.221Z,1017.53
2023-01-28T09:53:52.218Z,1017.56
2023-01-28T09:56:52.267Z,1017.58
2023-01-28T09:59:52.219Z,1017.6
2023-01-28T10:02:52.214Z,1017.65
2023-01-28T10:05:52.211Z,1017.63
2023-01-28T10:08:52.213Z,1017.67
2023-01-28T10:11:52.217Z,1017.68
2023-01-28T10:14:52.225Z,1017.7
2023-01-28T10:17:52.686Z,1017.73
2023-01-28T10:20:52.211Z,1017.68
2023-01-28T10:23:52.308Z,1017.7
2023-01-28T10:26:52.220Z,1017.71
2023-01-28T10:29:52.221Z,1017.75
2023-01-28T10:32:52.224Z,1017.73
2023-01-28T10:35:52.237Z,1017.74
2023-01-28T10:38:52.223Z,1017.79
2023-01-28T10:41:57.690Z,1017.8
2023-01-28T10:44:52.227Z,1017.74
2023-01-28T10:47:52.225Z,1017.72
2023-01-28T10:50:52.229Z,1017.73
2023-01-28T10:53:52.228Z,1017.79
2023-01-28T10:56:52.234Z,1017.74
2023-01-28T10:59:52.228Z,1017.74
2023-01-28T11:02:52.225Z,1017.82
2023-01-28T11:05:52.265Z,1017.77
2023-01-28T11:08:52.250Z,1017.77
2023-01-28T11:11:52.230Z,1017.71
2023-01-28T11:14:52.237Z,1017.77
2023-01-28T11:17:52.275Z,1017.74
2023-01-28T11:20:52.226Z,1017.76
2023-01-28T11:23:52.304Z,1017.8
2023-01-28T11:26:52.232Z,1017.75
2023-01-28T11:29:52.227Z,1017.78
2023-01-28T11:32:52.259Z,1017.83
2023-01-28T11:35:52.220Z,1017.8
2023-01-28T11:38:52.239Z,1017.81
2023-01-28T11:41:52.233Z,1017.74
2023-01-28T11:44:52.224Z,1017.73
2023-01-28T11:47:52.225Z,1017.66
2023-01-28T11:50:52.243Z,1017.64
2023-01-28T11:53:52.227Z,1017.65
2023-01-28T11:56:52.247Z,1017.56
2023-01-28T11:59:52.234Z,1017.52
2023-01-28T12:02:52.396Z,1017.58
2023-01-28T12:05:52.239Z,1017.59
2023-01-28T12:08:52.224Z,1017.53
2023-01-28T12:11:52.227Z,1017.54
2023-01-28T12:14:52.229Z,1017.6
2023-01-28T12:17:52.221Z,1017.54
2023-01-28T12:20:52.233Z,1017.52
2023-01-28T12:23:52.305Z,1017.46
2023-01-28T12:26:52.231Z,1017.46
2023-01-28T12:29:52.231Z,1017.51
2023-01-28T12:32:52.231Z,1017.53
2023-01-28T12:35:52.225Z,1017.53
2023-01-28T12:38:52.228Z,1017.46
2023-01-28T12:41:52.228Z,1017.42
2023-01-28T12:44:52.229Z,1017.38
2023-01-28T12:47:52.228Z,1017.37
2023-01-28T12:50:52.237Z,1017.39
2023-01-28T12:53:52.237Z,1017.36
2023-01-28T12:56:52.237Z,1017.31
2023-01-28T12:59:52.244Z,1017.34
2023-01-28T13:02:52.246Z,1017.37
2023-01-28T13:05:52.233Z,1017.36
2023-01-28T13:08:52.231Z,1017.28
2023-01-28T13:11:52.234Z,1017.33
2023-01-28T13:14:54.027Z,1017.39
2023-01-28T13:17:52.238Z,1017.4
2023-01-28T13:20:54.856Z,1017.46
2023-01-28T13:23:52.258Z,1017.52
2023-01-28T13:26:52.230Z,1017.58
2023-01-28T13:29:52.234Z,1017.62
2023-01-28T13:32:52.264Z,1017.64
2023-01-28T13:35:52.236Z,1017.67
2023-01-28T13:38:52.239Z,1017.72
2023-01-28T13:41:52.234Z,1017.69
2023-01-28T13:44:52.276Z,1017.72
2023-01-28T13:47:52.246Z,1017.71
2023-01-28T13:50:52.239Z,1017.72
2023-01-28T13:53:52.242Z,1017.69
2023-01-28T13:56:52.236Z,1017.75
2023-01-28T13:59:52.346Z,1017.7
2023-01-28T14:02:52.238Z,1017.7
2023-01-28T14:05:52.242Z,1017.78
2023-01-28T14:08:52.273Z,1017.75
2023-01-28T14:11:52.235Z,1017.72
2023-01-28T14:14:52.239Z,1017.75
2023-01-28T14:17:52.240Z,1017.79
2023-01-28T14:20:52.260Z,1017.72
2023-01-28T14:23:52.405Z,1017.73
2023-01-28T14:26:52.240Z,1017.76
2023-01-28T14:29:52.233Z,1017.79
2023-01-28T14:32:52.235Z,1017.77
2023-01-28T14:35:52.253Z,1017.75
2023-01-28T14:38:52.243Z,1017.83
2023-01-28T14:41:52.236Z,1017.8
2023-01-28T14:44:52.247Z,1017.83
2023-01-28T14:47:52.242Z,1017.86
2023-01-28T14:50:52.244Z,1017.83
2023-01-28T14:53:52.249Z,1017.79
2023-01-28T14:56:52.247Z,1017.73
2023-01-28T14:59:52.245Z,1017.72
2023-01-28T15:02:52.289Z,1017.7
2023-01-28T15:05:52.252Z,1017.66
2023-01-28T15:08:52.245Z,1017.65
2023-01-28T15:11:52.244Z,1017.62
2023-01-28T15:14:52.250Z,1017.73
2023-01-28T15:17:52.243Z,1017.8
2023-01-28T15:20:52.237Z,1017.73
2023-01-28T15:23:52.417Z,1017.7
2023-01-28T15:26:52.240Z,1017.62
2023-01-28T15:29:52.242Z,1017.58
2023-01-28T15:32:52.245Z,1017.58
2023-01-28T15:35:52.256Z,1017.47
2023-01-28T15:38:52.252Z,1017.42
2023-01-28T15:41:52.252Z,1017.42
2023-01-28T15:44:52.259Z,1017.56
2023-01-28T15:47:52.304Z,1017.57
2023-01-28T15:50:52.245Z,1017.57
2023-01-28T15:53:52.245Z,1017.64
2023-01-28T15:56:52.252Z,1017.69
2023-01-28T15:59:52.252Z,1017.65
2023-01-28T16:02:52.305Z,1017.59
2023-01-28T16:05:52.250Z,1017.65
2023-01-28T16:08:52.251Z,1017.7
2023-01-28T16:11:52.258Z,1017.76
2023-01-28T16:14:52.259Z,1017.78
2023-01-28T16:17:52.252Z,1017.75
2023-01-28T16:20:52.275Z,1017.75
2023-01-28T16:23:52.343Z,1017.81
2023-01-28T16:26:52.256Z,1017.89
2023-01-28T16:29:52.261Z,1017.9
2023-01-28T16:32:52.255Z,1017.94
2023-01-28T16:36:06.407Z,1018.01
2023-01-28T16:38:52.261Z,1018.02
2023-01-28T16:41:52.261Z,1017.93
2023-01-28T16:44:52.260Z,1017.93
2023-01-28T16:47:52.258Z,1018.01
2023-01-28T16:50:52.255Z,1018.05
2023-01-28T16:53:52.261Z,1017.99
2023-01-28T16:56:52.259Z,1018
2023-01-28T16:59:52.271Z,1017.99
2023-01-28T17:02:52.257Z,1017.99
2023-01-28T17:05:52.263Z,1018.03
2023-01-28T17:08:52.260Z,1018.08
2023-01-28T17:11:52.259Z,1018.08
2023-01-28T17:14:52.256Z,1018.09
2023-01-28T17:17:52.264Z,1018.2
2023-01-28T17:20:52.260Z,1018.17
2023-01-28T17:23:52.279Z,1018.2
2023-01-28T17:26:52.262Z,1018.25
2023-01-28T17:29:52.260Z,1018.35
2023-01-28T17:32:52.267Z,1018.31
2023-01-28T17:35:52.260Z,1018.31
2023-01-28T17:38:52.264Z,1018.28
2023-01-28T17:41:52.263Z,1018.23
2023-01-28T17:44:52.261Z,1018.19
2023-01-28T17:47:52.267Z,1018.17
2023-01-28T17:50:52.314Z,1018.23
2023-01-28T17:53:52.287Z,1018.38
2023-01-28T17:56:52.262Z,1018.49
2023-01-28T17:59:52.267Z,1018.49
2023-01-28T18:02:52.263Z,1018.62
2023-01-28T18:05:52.282Z,1018.64
2023-01-28T18:08:52.264Z,1018.64
2023-01-28T18:11:52.273Z,1018.62
2023-01-28T18:14:52.265Z,1018.62
2023-01-28T18:17:52.305Z,1018.63
2023-01-28T18:20:52.266Z,1018.66
2023-01-28T18:23:52.354Z,1018.66
2023-01-28T18:26:52.269Z,1018.75
2023-01-28T18:29:52.265Z,1018.91
2023-01-28T18:32:52.265Z,1019.03
2023-01-28T18:35:52.266Z,1019.07
2023-01-28T18:38:52.263Z,1019.1
2023-01-28T18:41:52.266Z,1019.11
2023-01-28T18:44:52.258Z,1019.21
2023-01-28T18:47:52.269Z,1019.14
2023-01-28T18:50:52.263Z,1019.15
2023-01-28T18:53:52.265Z,1019.13
2023-01-28T18:56:52.266Z,1019.13
2023-01-28T18:59:52.266Z,1019.16
2023-01-28T19:02:52.259Z,1019.16
2023-01-28T19:05:52.272Z,1019.11
2023-01-28T19:08:52.322Z,1019.13
2023-01-28T19:11:52.275Z,1019.2
2023-01-28T19:14:52.272Z,1019.17
2023-01-28T19:17:52.278Z,1019.17
2023-01-28T19:20:52.275Z,1019.35
2023-01-28T19:23:52.266Z,1019.43
2023-01-28T19:26:52.277Z,1019.4
2023-01-28T19:29:52.271Z,1019.33
2023-01-28T19:32:52.304Z,1019.27
2023-01-28T19:35:52.296Z,1019.27
2023-01-28T19:38:52.285Z,1019.21
2023-01-28T19:41:52.290Z,1019.2
2023-01-28T19:44:52.289Z,1019.26
2023-01-28T19:47:52.284Z,1019.18
2023-01-28T19:50:52.289Z,1019.3
2023-01-28T19:53:52.288Z,1019.29
2023-01-28T19:56:52.290Z,1019.19
2023-01-28T19:59:52.292Z,1019.32
2023-01-28T20:02:52.397Z,1019.38
2023-01-28T20:05:52.287Z,1019.41
2023-01-28T20:08:52.295Z,1019.43
2023-01-28T20:11:52.289Z,1019.37
2023-01-28T20:14:52.291Z,1019.38
2023-01-28T20:17:52.294Z,1019.38
2023-01-28T20:20:52.314Z,1019.41
2023-01-28T20:23:52.295Z,1019.46
2023-01-28T20:26:52.286Z,1019.5
2023-01-28T20:29:52.300Z,1019.52
2023-01-28T20:32:52.293Z,1019.52
2023-01-28T20:35:52.293Z,1019.49
2023-01-28T20:38:52.284Z,1019.51
2023-01-28T20:41:52.302Z,1019.48
2023-01-28T20:44:52.295Z,1019.42
2023-01-28T20:47:52.295Z,1019.57
2023-01-28T20:50:52.292Z,1019.59
2023-01-28T20:53:52.295Z,1019.5
2023-01-28T20:56:52.323Z,1019.5
2023-01-28T20:59:52.299Z,1019.57
2023-01-28T21:02:52.356Z,1019.64
2023-01-28T21:05:52.344Z,1019.67
2023-01-28T21:08:52.299Z,1019.64
2023-01-28T21:11:52.291Z,1019.52
2023-01-28T21:14:52.289Z,1019.55
2023-01-28T21:17:52.300Z,1019.65
2023-01-28T21:20:52.299Z,1019.64
2023-01-28T21:23:52.305Z,1019.62
2023-01-28T21:26:52.291Z,1019.61
2023-01-28T21:29:52.289Z,1019.63
2023-01-28T21:32:52.293Z,1019.59
2023-01-28T21:35:52.295Z,1019.58
2023-01-28T21:38:52.311Z,1019.56
2023-01-28T21:41:52.305Z,1019.53
2023-01-28T21:44:52.300Z,1019.53
2023-01-28T21:47:52.298Z,1019.59
2023-01-28T21:50:52.295Z,1019.54
2023-01-28T21:53:52.298Z,1019.45
2023-01-28T21:56:52.307Z,1019.41
2023-01-28T21:59:52.303Z,1019.44
2023-01-28T22:02:52.394Z,1019.42
2023-01-28T22:05:52.296Z,1019.42
2023-01-28T22:08:52.311Z,1019.41
2023-01-28T22:11:52.292Z,1019.36
2023-01-28T22:14:52.298Z,1019.35
2023-01-28T22:17:52.310Z,1019.42
2023-01-28T22:20:52.303Z,1019.43
2023-01-28T22:23:52.304Z,1019.44
2023-01-28T22:26:52.299Z,1019.41
2023-01-28T22:29:52.304Z,1019.4
2023-01-28T22:32:52.313Z,1019.38
2023-01-28T22:35:52.296Z,1019.42
2023-01-28T22:38:52.295Z,1019.44
2023-01-28T22:41:52.315Z,1019.42
2023-01-28T22:44:52.312Z,1019.39
2023-01-28T22:47:52.302Z,1019.4
2023-01-28T22:50:52.303Z,1019.41
2023-01-28T22:53:52.306Z,1019.32
2023-01-28T22:56:52.307Z,1019.36
2023-01-28T22:59:59.884Z,1019.32
2023-01-28T23:02:52.324Z,1019.3
2023-01-28T23:05:52.299Z,1019.32
2023-01-28T23:08:52.305Z,1019.25
2023-01-28T23:11:52.302Z,1019.22
2023-01-28T23:14:52.303Z,1019.24
2023-01-28T23:17:52.303Z,1019.2
2023-01-28T23:20:52.308Z,1019.24
2023-01-28T23:23:52.305Z,1019.26
2023-01-28T23:26:52.309Z,1019.24
2023-01-28T23:29:52.307Z,1019.2
2023-01-28T23:32:52.309Z,1019.25
2023-01-28T23:35:52.305Z,1019.27
2023-01-28T23:38:52.306Z,1019.21
2023-01-28T23:41:52.308Z,1019.26
2023-01-28T23:44:52.322Z,1019.28
2023-01-28T23:47:52.348Z,1019.21
2023-01-28T23:50:52.312Z,1019.23
2023-01-28T23:53:52.305Z,1019.23
2023-01-28T23:56:52.311Z,1019.22
2023-01-28T23:59:52.304Z,1019.22
